RJTH(METAR)
09/24 17:00
RJTH 240800Z 23005KT 9999 FEW015 SCTXXX 27/24 Q1015 RMK A2997=
戻る
トップページへ戻る
IMOC Co,.Ltd.